Time;durP1;ratioP1;P1;durP2;ratioP2;P2;SDS_P1;SDS_P2;PMS_P1;PMS_P2;Temp;Humidity;BMP_temperature;BMP_pressure;BME280_temperature;BME280_humidity;BME280_pressure;Samples;Min_cycle;Max_cycle;Signal;HPM_P1;HPM_P2
2022/02/03 00:00:03;;;;;;;14.85;9.82;;;8.90;99.90;;;;;;5096892;28;20031;-82
2022/02/03 00:05:13;;;;;;;14.82;8.75;;;8.90;99.90;;;;;;5096529;28;20028;-82
2022/02/03 00:24:24;;;;;;;19.88;16.55;;;8.70;99.90;;;;;;5053980;28;20029;-86
2022/02/03 00:27:13;;;;;;;17.02;12.68;;;8.80;99.90;;;;;;5090726;28;20043;-82
2022/02/03 00:29:58;;;;;;;15.18;9.38;;;8.80;99.90;;;;;;5094543;28;20497;-83
2022/02/03 00:35:44;;;;;;;14.75;11.70;;;8.80;99.90;;;;;;5096547;28;20509;-85
2022/02/03 00:49:00;;;;;;;13.40;9.05;;;8.80;99.90;;;;;;5095321;28;20035;-81
2022/02/03 00:51:27;;;;;;;14.55;9.88;;;8.70;99.90;;;;;;5094376;28;20028;-83
2022/02/03 00:53:56;;;;;;;13.20;8.55;;;8.80;99.90;;;;;;5095587;28;20031;-83
2022/02/03 00:56:24;;;;;;;14.00;8.23;;;8.70;99.90;;;;;;5095871;28;20421;-82
2022/02/03 00:59:02;;;;;;;14.55;9.80;;;8.70;99.90;;;;;;5095474;28;20016;-85
2022/02/03 01:01:32;;;;;;;13.32;8.77;;;8.70;99.90;;;;;;5096051;28;20024;-86
2022/02/03 01:04:03;;;;;;;16.37;9.20;;;8.70;99.90;;;;;;5095058;28;20067;-85
2022/02/03 01:06:32;;;;;;;15.02;8.50;;;8.80;99.90;;;;;;5096003;28;20111;-83
2022/02/03 01:08:58;;;;;;;13.00;7.63;;;8.70;99.90;;;;;;5095321;28;20024;-82
2022/02/03 01:11:34;;;;;;;12.95;8.50;;;8.60;99.90;;;;;;5095534;28;20106;-81
2022/02/03 01:14:08;;;;;;;12.82;7.82;;;8.60;99.90;;;;;;5093743;28;20024;-86
2022/02/03 01:43:37;;;;;;;12.68;7.05;;;8.90;99.90;;;;;;5095240;28;20504;-81
2022/02/03 01:46:14;;;;;;;10.32;5.60;;;8.90;99.90;;;;;;5094950;28;20020;-85
2022/02/03 01:54:04;;;;;;;10.45;7.50;;;8.80;99.90;;;;;;5094736;28;20039;-84
2022/02/03 01:56:40;;;;;;;10.13;7.35;;;8.80;99.90;;;;;;5094436;28;20031;-84
2022/02/03 01:59:21;;;;;;;9.63;6.10;;;8.80;99.90;;;;;;5092993;28;20034;-83
2022/02/03 02:01:50;;;;;;;15.25;6.97;;;8.80;99.90;;;;;;5094636;28;20016;-82
2022/02/03 02:04:41;;;;;;;11.10;5.83;;;8.80;99.90;;;;;;5093872;28;20153;-83
2022/02/03 02:07:06;;;;;;;11.20;6.90;;;8.80;99.90;;;;;;5094204;28;20308;-82
2022/02/03 02:12:41;;;;;;;11.43;7.38;;;8.70;99.90;;;;;;5094695;28;20043;-84
2022/02/03 02:39:51;;;;;;;11.52;6.30;;;8.40;99.90;;;;;;5093306;28;20054;-83
2022/02/03 02:45:15;;;;;;;9.80;5.78;;;8.50;99.90;;;;;;5093337;28;20451;-85
2022/02/03 02:48:09;;;;;;;11.32;5.85;;;8.50;99.90;;;;;;5092261;28;20082;-81
2022/02/03 02:50:56;;;;;;;9.18;5.32;;;8.50;99.90;;;;;;5093804;28;20402;-84
2022/02/03 02:53:53;;;;;;;9.85;5.68;;;8.50;99.90;;;;;;5093788;28;20020;-82
2022/02/03 03:29:39;;;;;;;3.78;2.00;;;8.50;99.90;;;;;;5093589;28;20035;-84
2022/02/03 03:32:22;;;;;;;4.88;2.70;;;8.40;99.90;;;;;;5091788;28;20094;-82
2022/02/03 03:35:11;;;;;;;4.47;1.95;;;8.30;99.90;;;;;;5091544;28;20409;-84
2022/02/03 03:40:10;;;;;;;4.43;1.67;;;8.20;99.90;;;;;;5093312;28;20031;-84
2022/02/03 03:42:39;;;;;;;4.28;2.03;;;8.20;99.90;;;;;;5093262;28;20492;-84
2022/02/03 03:45:07;;;;;;;4.22;1.92;;;8.30;99.90;;;;;;5092919;28;20024;-84
2022/02/03 03:47:35;;;;;;;4.30;1.77;;;8.30;99.90;;;;;;5092895;28;20024;-86
2022/02/03 03:50:15;;;;;;;2.65;1.73;;;8.30;99.90;;;;;;5092909;28;20122;-83
2022/02/03 03:52:57;;;;;;;3.13;1.70;;;8.40;99.90;;;;;;5093232;28;20048;-85
2022/02/03 03:55:47;;;;;;;4.20;1.88;;;8.30;99.90;;;;;;5092898;28;20038;-85
2022/02/03 04:39:54;;;;;;;3.05;1.55;;;8.50;99.90;;;;;;5095678;28;20108;-84
2022/02/03 05:03:26;;;;;;;15.70;6.80;;;8.40;99.90;;;;;;5095498;28;20135;-82
2022/02/03 05:06:42;;;;;;;3.05;1.70;;;8.40;99.90;;;;;;5093959;28;20030;-85
2022/02/03 05:09:43;;;;;;;4.78;2.42;;;8.30;99.90;;;;;;5100632;28;20409;-84
2022/02/03 05:12:45;;;;;;;31.30;17.92;;;8.40;99.90;;;;;;5093815;28;20519;-84
2022/02/03 05:18:43;;;;;;;5.90;3.40;;;8.40;99.90;;;;;;5095310;28;20070;-83
2022/02/03 06:07:26;;;;;;;8.32;4.95;;;8.40;99.90;;;;;;5094308;28;20482;-82
2022/02/03 06:15:26;;;;;;;57.85;22.55;;;8.40;99.90;;;;;;5093889;28;20034;-83
2022/02/03 06:20:41;;;;;;;58.17;23.33;;;8.40;99.90;;;;;;5094350;28;20027;-84
2022/02/03 06:21:11;;;;;;;124.20;47.58;;;8.30;99.90;;;;;;5093681;28;20101;-83
2022/02/03 06:23:43;;;;;;;134.45;55.75;;;8.20;99.90;;;;;;5093795;28;20398;-84
2022/02/03 06:29:00;;;;;;;47.03;22.52;;;8.20;99.90;;;;;;5094151;28;20039;-83
2022/02/03 06:31:26;;;;;;;41.00;22.38;;;8.20;99.90;;;;;;5093875;28;20019;-81
2022/02/03 06:33:52;;;;;;;24.38;11.35;;;8.10;99.90;;;;;;5094062;28;20028;-85
2022/02/03 06:36:18;;;;;;;55.10;28.98;;;8.30;99.90;;;;;;5093716;28;20016;-82
2022/02/03 06:38:44;;;;;;;11.02;5.20;;;8.30;99.90;;;;;;5093934;28;20508;-84
2022/02/03 06:41:10;;;;;;;45.22;23.90;;;8.40;99.90;;;;;;5093705;28;20016;-83
2022/02/03 06:43:35;;;;;;;31.75;17.27;;;8.30;99.90;;;;;;5092328;28;20020;-83
2022/02/03 06:46:06;;;;;;;18.60;8.77;;;8.40;99.90;;;;;;5093871;28;20024;-83
2022/02/03 06:48:33;;;;;;;22.70;11.55;;;8.40;99.90;;;;;;5093003;28;20024;-85
2022/02/03 06:51:07;;;;;;;51.40;32.97;;;8.40;99.90;;;;;;5093794;28;20035;-85
2022/02/03 06:53:37;;;;;;;77.95;51.92;;;8.40;99.90;;;;;;5091888;28;20070;-82
2022/02/03 06:56:23;;;;;;;14.50;9.68;;;8.30;99.90;;;;;;5093502;28;20020;-83
2022/02/03 06:58:53;;;;;;;15.10;10.07;;;8.30;99.90;;;;;;5093716;28;20559;-82
2022/02/03 07:01:25;;;;;;;2.58;1.58;;;8.30;99.90;;;;;;5093774;28;20078;-84
2022/02/03 07:03:58;;;;;;;9.05;5.50;;;8.40;99.90;;;;;;5093267;28;20051;-86
2022/02/03 07:06:24;;;;;;;8.27;5.15;;;8.30;99.90;;;;;;5093949;28;20171;-87
2022/02/03 07:08:51;;;;;;;13.00;8.27;;;8.30;99.90;;;;;;5093263;28;20482;-87
2022/02/03 07:11:20;;;;;;;5.65;2.75;;;8.30;99.90;;;;;;5093561;28;20024;-83
2022/02/03 07:13:46;;;;;;;15.13;9.05;;;8.20;99.90;;;;;;5093266;28;20043;-82
2022/02/03 07:16:12;;;;;;;5.70;2.95;;;8.20;99.90;;;;;;5093236;28;20028;-83
2022/02/03 07:18:37;;;;;;;1.83;1.30;;;8.30;99.90;;;;;;5093136;28;20505;-83
2022/02/03 07:21:03;;;;;;;4.32;3.00;;;8.20;99.90;;;;;;5093258;28;20555;-85
2022/02/03 07:23:29;;;;;;;9.85;5.38;;;8.30;99.90;;;;;;5091922;28;20028;-84
2022/02/03 07:25:55;;;;;;;6.32;3.60;;;8.30;99.90;;;;;;5093448;28;20091;-83
2022/02/03 07:28:20;;;;;;;46.85;33.80;;;8.20;99.90;;;;;;5092193;28;20024;-82
2022/02/03 07:30:46;;;;;;;13.85;9.98;;;8.30;99.90;;;;;;5093119;28;20026;-85
2022/02/03 07:33:12;;;;;;;5.05;3.20;;;8.40;99.90;;;;;;5093347;28;20028;-82
2022/02/03 07:35:38;;;;;;;16.40;14.00;;;8.40;99.90;;;;;;5093091;28;20428;-82
2022/02/03 07:38:07;;;;;;;4.13;2.50;;;8.50;99.90;;;;;;5092953;28;20024;-83
2022/02/03 07:40:33;;;;;;;4.30;2.35;;;8.50;99.90;;;;;;5093077;28;20051;-85
2022/02/03 07:43:02;;;;;;;7.20;3.83;;;8.50;99.90;;;;;;5093319;28;20024;-83
2022/02/03 07:45:30;;;;;;;5.05;2.92;;;8.50;99.90;;;;;;5092994;28;20030;-82
2022/02/03 07:47:55;;;;;;;5.38;2.72;;;8.50;99.90;;;;;;5092963;28;20027;-82
2022/02/03 07:50:21;;;;;;;7.50;4.65;;;8.60;99.90;;;;;;5093162;28;20020;-84
2022/02/03 07:52:48;;;;;;;11.98;7.43;;;8.50;99.90;;;;;;5092881;28;20028;-82
2022/02/03 07:55:14;;;;;;;7.82;4.18;;;8.50;99.90;;;;;;5092832;28;20024;-84
2022/02/03 07:57:45;;;;;;;30.55;23.92;;;8.40;99.90;;;;;;5091176;28;20478;-83
2022/02/03 08:00:11;;;;;;;33.75;30.10;;;8.40;99.90;;;;;;5096861;28;20020;-80
2022/02/03 08:02:40;;;;;;;20.40;17.02;;;8.40;99.90;;;;;;5095922;28;20386;-82
2022/02/03 08:05:07;;;;;;;25.63;18.23;;;8.50;99.90;;;;;;5096890;28;20095;-83
2022/02/03 08:07:34;;;;;;;6.85;4.05;;;8.60;99.90;;;;;;5097214;28;20035;-81
2022/02/03 08:10:06;;;;;;;3.15;1.90;;;8.60;99.90;;;;;;5096576;28;20067;-81
2022/02/03 08:12:35;;;;;;;4.25;2.63;;;8.70;99.90;;;;;;5114247;28;20035;-83
2022/02/03 08:15:02;;;;;;;40.30;25.70;;;8.80;99.90;;;;;;5116868;28;20024;-81
2022/02/03 08:17:36;;;;;;;18.13;12.35;;;8.70;99.90;;;;;;5098514;28;20052;-78
2022/02/03 08:20:11;;;;;;;10.18;7.07;;;8.70;99.90;;;;;;5094753;28;20020;-83
2022/02/03 08:22:43;;;;;;;5.75;2.90;;;8.60;99.90;;;;;;5094688;28;20036;-84
2022/02/03 08:25:22;;;;;;;3.33;1.92;;;8.70;99.90;;;;;;5094801;28;20039;-80
2022/02/03 08:32:53;;;;;;;3.42;1.90;;;8.70;99.90;;;;;;5096420;28;20028;-82
2022/02/03 08:37:53;;;;;;;3.33;1.98;;;8.60;99.90;;;;;;5096527;28;20122;-78
2022/02/03 08:40:28;;;;;;;2.13;1.50;;;8.60;99.90;;;;;;5095551;28;20114;-80
2022/02/03 08:42:53;;;;;;;4.65;2.03;;;8.70;99.90;;;;;;5095087;28;20052;-79
2022/02/03 08:45:19;;;;;;;3.38;1.83;;;8.50;99.90;;;;;;5103950;28;20445;-76
2022/02/03 08:47:45;;;;;;;3.58;2.00;;;8.50;99.90;;;;;;5116625;28;20023;-82
2022/02/03 08:50:11;;;;;;;4.30;2.38;;;8.60;99.90;;;;;;5116016;28;20024;-78
2022/02/03 08:52:52;;;;;;;5.43;2.60;;;8.50;99.90;;;;;;5106042;28;20465;-79
2022/02/03 08:58:18;;;;;;;4.47;2.60;;;8.60;99.90;;;;;;5115523;28;20032;-78
2022/02/03 09:59:48;;;;;;;3.55;2.03;;;9.20;99.90;;;;;;5106113;28;20039;-80
2022/02/03 10:02:20;;;;;;;2.10;1.58;;;9.20;99.90;;;;;;5114589;28;20027;-76
2022/02/03 10:04:55;;;;;;;3.05;1.55;;;9.30;99.90;;;;;;5114735;27;20023;-75
2022/02/03 10:07:25;;;;;;;3.08;1.75;;;9.30;99.90;;;;;;5113203;28;20023;-76
2022/02/03 10:09:56;;;;;;;3.22;1.95;;;9.40;99.90;;;;;;5111111;28;20028;-78
2022/02/03 10:12:39;;;;;;;2.38;1.60;;;9.40;99.90;;;;;;5093563;28;20036;-80
2022/02/03 10:15:08;;;;;;;2.00;1.25;;;9.40;99.90;;;;;;5094260;28;20073;-80
2022/02/03 10:17:39;;;;;;;1.15;1.00;;;9.50;99.90;;;;;;5094424;28;20035;-79
2022/02/03 10:20:10;;;;;;;2.38;1.23;;;9.70;99.90;;;;;;5093946;28;20489;-77
2022/02/03 10:22:58;;;;;;;1.60;1.10;;;9.70;99.90;;;;;;5093687;28;20107;-77
2022/02/03 10:25:26;;;;;;;1.95;1.33;;;9.60;99.90;;;;;;5094378;28;20124;-77
2022/02/03 10:28:00;;;;;;;2.17;1.30;;;9.60;99.90;;;;;;5094712;28;20169;-77
2022/02/03 10:30:34;;;;;;;3.67;1.65;;;9.60;99.90;;;;;;5100962;28;20078;-79
2022/02/03 10:33:00;;;;;;;2.30;1.40;;;9.60;99.90;;;;;;5094100;28;20031;-76
2022/02/03 11:10:39;;;;;;;22.20;10.90;;;10.40;99.90;;;;;;5110992;28;20496;-79
2022/02/03 11:13:06;;;;;;;27.38;15.02;;;10.40;99.90;;;;;;5093604;28;20448;-76
2022/02/03 11:15:33;;;;;;;16.40;12.98;;;10.50;99.90;;;;;;5100610;28;20101;-76
2022/02/03 11:18:03;;;;;;;7.13;5.07;;;10.60;99.90;;;;;;5112944;28;20028;-77
2022/02/03 11:20:31;;;;;;;3.20;2.28;;;10.70;99.90;;;;;;5113562;28;20537;-79
2022/02/03 11:57:07;;;;;;;1.95;1.50;;;11.10;99.90;;;;;;5093686;27;20035;-78
2022/02/03 12:02:34;;;;;;;5.05;2.20;;;11.30;99.90;;;;;;5117208;28;20031;-77
2022/02/03 12:05:37;;;;;;;3.75;2.30;;;11.20;99.90;;;;;;5115589;28;20019;-79
2022/02/03 12:21:59;;;;;;;2.72;1.83;;;11.10;99.90;;;;;;5117458;28;20465;-78
2022/02/03 12:24:36;;;;;;;3.33;1.80;;;11.10;99.90;;;;;;5117079;28;20054;-76
2022/02/03 12:27:24;;;;;;;3.53;2.05;;;11.20;99.90;;;;;;5117053;28;20037;-76
2022/02/03 12:29:58;;;;;;;3.17;2.20;;;11.20;99.90;;;;;;5115302;28;20405;-76
2022/02/03 12:43:01;;;;;;;2.90;1.80;;;11.40;99.90;;;;;;5116182;28;20458;-77
2022/02/03 12:45:27;;;;;;;7.35;5.22;;;11.50;99.90;;;;;;5115292;27;20097;-77
2022/02/03 12:47:56;;;;;;;4.45;2.90;;;11.50;99.90;;;;;;5116870;28;20016;-78
2022/02/03 12:50:23;;;;;;;2.10;1.70;;;11.50;99.90;;;;;;5116260;28;20020;-74
2022/02/03 12:52:49;;;;;;;3.13;2.50;;;11.50;99.90;;;;;;5116156;28;20024;-76
2022/02/03 12:55:20;;;;;;;3.10;1.63;;;11.50;99.90;;;;;;5116143;28;20027;-75
2022/02/03 12:57:48;;;;;;;2.00;1.60;;;11.50;99.90;;;;;;5116145;28;20026;-78
2022/02/03 13:00:42;;;;;;;2.72;1.67;;;11.60;99.90;;;;;;5115980;28;20042;-77
2022/02/03 13:03:10;;;;;;;3.05;2.17;;;11.70;99.90;;;;;;5115771;28;20051;-79
2022/02/03 13:05:37;;;;;;;2.35;1.60;;;11.70;99.90;;;;;;5116232;28;20019;-77
2022/02/03 13:08:05;;;;;;;3.03;1.90;;;11.70;99.90;;;;;;5116183;28;20023;-78
2022/02/03 13:10:35;;;;;;;2.17;1.80;;;11.60;99.90;;;;;;5116182;28;20031;-79
2022/02/03 13:13:20;;;;;;;2.23;1.57;;;11.60;99.90;;;;;;5115824;28;20073;-76
2022/02/03 13:15:46;;;;;;;2.08;1.58;;;11.70;99.90;;;;;;5116083;28;20472;-78
2022/02/03 13:18:22;;;;;;;4.03;2.83;;;11.70;99.90;;;;;;5115708;28;20019;-78
2022/02/03 13:20:58;;;;;;;6.97;3.10;;;11.60;99.90;;;;;;5114079;28;20034;-77
2022/02/03 13:23:27;;;;;;;15.13;8.90;;;11.50;99.90;;;;;;5114078;28;20028;-77
2022/02/03 13:26:03;;;;;;;3.75;2.20;;;11.50;99.90;;;;;;5115574;28;20149;-79
2022/02/03 13:28:42;;;;;;;4.05;1.55;;;11.50;99.90;;;;;;5115798;27;20015;-77
2022/02/03 13:31:23;;;;;;;2.88;2.00;;;11.50;99.90;;;;;;5113912;28;20096;-78
2022/02/03 13:34:02;;;;;;;6.20;3.03;;;11.60;99.90;;;;;;5115405;28;20015;-77
2022/02/03 13:36:35;;;;;;;5.68;3.58;;;11.60;99.90;;;;;;5113800;28;20027;-78
2022/02/03 13:41:34;;;;;;;2.70;2.00;;;11.90;99.90;;;;;;5115207;28;20023;-77
2022/02/03 13:44:04;;;;;;;3.13;2.28;;;12.10;99.90;;;;;;5115473;28;20015;-77
2022/02/03 13:46:44;;;;;;;1.55;1.30;;;12.20;99.90;;;;;;5115204;28;20028;-77
2022/02/03 13:49:15;;;;;;;4.25;2.65;;;12.20;99.90;;;;;;5115118;28;20031;-78
2022/02/03 13:51:42;;;;;;;2.53;1.83;;;12.10;99.90;;;;;;5115055;28;20378;-78
2022/02/03 13:54:51;;;;;;;3.35;2.20;;;12.10;99.90;;;;;;5115071;28;20076;-77
2022/02/03 14:17:28;;;;;;;3.13;2.45;;;11.70;99.90;;;;;;5113958;28;20465;-77
2022/02/03 14:21:41;;;;;;;3.85;1.50;;;11.60;99.90;;;;;;5114547;28;20020;-77
2022/02/03 14:29:23;;;;;;;2.30;1.63;;;11.50;99.90;;;;;;5114364;28;20027;-78
2022/02/03 14:31:58;;;;;;;3.08;2.10;;;11.50;99.90;;;;;;5112709;28;20028;-78
2022/02/03 14:34:29;;;;;;;1.90;1.65;;;11.50;99.90;;;;;;5114537;28;20027;-77
2022/02/03 14:40:02;;;;;;;2.75;1.83;;;11.50;99.90;;;;;;5114709;28;20084;-78
2022/02/03 14:42:22;;;;;;;2.47;1.85;;;11.50;99.90;;;;;;5114418;28;20016;-79
2022/02/03 14:44:48;;;;;;;3.88;2.00;;;11.50;99.90;;;;;;5112509;28;20393;-79
2022/02/03 14:47:14;;;;;;;3.45;2.22;;;11.50;99.90;;;;;;5114310;28;20094;-77
2022/02/03 14:49:43;;;;;;;2.55;2.20;;;11.50;99.90;;;;;;5114032;28;20051;-78
2022/02/03 15:00:06;;;;;;;1.90;1.60;;;11.50;99.90;;;;;;5113159;28;20570;-77
2022/02/03 15:02:33;;;;;;;2.47;2.08;;;11.50;99.90;;;;;;5113186;28;20040;-78
2022/02/03 15:05:06;;;;;;;1.80;1.60;;;11.40;99.90;;;;;;5113507;28;20098;-77
2022/02/03 15:07:34;;;;;;;4.32;1.65;;;11.50;99.90;;;;;;5113145;28;20466;-76
2022/02/03 15:15:01;;;;;;;1.73;1.45;;;11.50;99.90;;;;;;5114275;28;20058;-75
2022/02/03 15:17:29;;;;;;;2.58;2.30;;;11.50;99.90;;;;;;5113660;28;20020;-77
2022/02/03 15:19:59;;;;;;;1.67;1.48;;;11.50;99.90;;;;;;5112281;28;20427;-76
2022/02/03 15:22:27;;;;;;;2.17;1.70;;;11.60;99.90;;;;;;5113633;28;20579;-77
2022/02/03 15:24:53;;;;;;;2.20;2.00;;;11.60;99.90;;;;;;5113596;28;20673;-76
2022/02/03 15:27:19;;;;;;;2.75;1.63;;;11.70;99.90;;;;;;5113522;28;20024;-77
2022/02/03 15:29:47;;;;;;;2.45;1.77;;;11.70;99.90;;;;;;5114039;28;20077;-75
2022/02/03 15:32:13;;;;;;;2.22;1.60;;;11.70;99.90;;;;;;5113813;28;20023;-79
2022/02/03 15:34:39;;;;;;;1.83;1.42;;;11.70;99.90;;;;;;5113735;28;20035;-76
2022/02/03 15:37:15;;;;;;;3.33;1.70;;;11.60;99.90;;;;;;5113441;28;20073;-78
2022/02/03 15:39:48;;;;;;;1.65;1.55;;;11.60;99.90;;;;;;5111895;28;20062;-76
2022/02/03 15:42:24;;;;;;;2.65;1.90;;;11.50;99.90;;;;;;5113504;28;20411;-77
2022/02/03 15:44:52;;;;;;;4.80;3.42;;;11.50;99.90;;;;;;5111872;28;20081;-76
2022/02/03 15:47:26;;;;;;;3.03;2.17;;;11.50;99.90;;;;;;5113651;28;20023;-75
2022/02/03 15:50:37;;;;;;;3.50;2.80;;;11.50;99.90;;;;;;5111874;28;20028;-78
2022/02/03 16:03:36;;;;;;;;;;;11.30;99.90;;;;;;5113738;28;20050;-77
2022/02/03 16:17:05;;;;;;;13.57;12.18;;;11.20;99.90;;;;;;5091704;28;20035;-79
2022/02/03 16:19:52;;;;;;;6.05;3.47;;;11.20;99.90;;;;;;5114501;28;20047;-77
2022/02/03 16:22:45;;;;;;;4.45;2.85;;;11.30;99.90;;;;;;5116900;28;20080;-78
2022/02/03 16:25:24;;;;;;;14.25;12.57;;;11.30;99.90;;;;;;5116805;28;20020;-77
2022/02/03 16:42:28;;;;;;;4.55;2.72;;;11.30;99.90;;;;;;5116498;28;20401;-76
2022/02/03 16:55:05;;;;;;;2.72;2.33;;;11.30;99.90;;;;;;5116124;28;20482;-78
2022/02/03 16:57:31;;;;;;;2.53;1.38;;;11.20;99.90;;;;;;5116147;28;20020;-77
2022/02/03 17:00:00;;;;;;;2.90;1.85;;;11.20;99.90;;;;;;5116273;28;20031;-77
2022/02/03 17:02:26;;;;;;;2.83;1.83;;;11.10;99.90;;;;;;5114560;28;20031;-77
2022/02/03 17:04:53;;;;;;;1.88;1.50;;;11.20;99.90;;;;;;5116257;28;20477;-79
2022/02/03 17:07:20;;;;;;;4.78;2.50;;;11.30;99.90;;;;;;5115941;28;20020;-79
2022/02/03 17:09:46;;;;;;;6.90;4.15;;;11.30;99.90;;;;;;5115865;28;20066;-77
2022/02/03 17:12:12;;;;;;;44.30;19.60;;;11.30;99.90;;;;;;5115823;28;20012;-76
2022/02/03 17:14:37;;;;;;;27.13;14.68;;;11.30;99.90;;;;;;5115740;28;20031;-76
2022/02/03 17:17:03;;;;;;;13.45;7.72;;;11.30;99.90;;;;;;5116297;28;20024;-76
2022/02/03 17:19:30;;;;;;;32.03;20.25;;;11.30;99.90;;;;;;5115580;28;20482;-77
2022/02/03 17:21:55;;;;;;;14.88;9.50;;;11.30;99.90;;;;;;5114360;28;20026;-78
2022/02/03 17:24:21;;;;;;;32.60;21.90;;;11.30;99.90;;;;;;5115612;28;20561;-78
2022/02/03 17:26:57;;;;;;;12.30;8.13;;;11.30;99.90;;;;;;5115579;28;20054;-77
2022/02/03 17:29:55;;;;;;;12.38;8.40;;;11.30;99.90;;;;;;5114031;28;20023;-77
2022/02/03 18:18:46;;;;;;;9.13;5.95;;;10.90;99.90;;;;;;5114840;28;20081;-77
2022/02/03 18:32:05;;;;;;;6.68;4.45;;;11.00;99.90;;;;;;5114095;28;20024;-78
2022/02/03 18:52:27;;;;;;;8.50;5.97;;;11.00;99.90;;;;;;5113964;28;20028;-76
2022/02/03 18:55:08;;;;;;;8.80;5.22;;;10.90;99.90;;;;;;5113861;28;20103;-78
2022/02/03 18:58:04;;;;;;;5.22;3.88;;;10.90;99.90;;;;;;5112346;28;20028;-77
2022/02/03 19:00:37;;;;;;;5.63;3.80;;;11.00;99.90;;;;;;5113025;28;20126;-76
2022/02/03 20:09:58;;;;;;;4.93;3.13;;;10.70;99.90;;;;;;5117407;28;20026;-78
2022/02/03 20:12:24;;;;;;;4.18;2.80;;;10.80;99.90;;;;;;5117308;28;20024;-77
2022/02/03 20:14:50;;;;;;;3.83;2.70;;;10.80;99.90;;;;;;5116960;28;20031;-78
2022/02/03 20:17:19;;;;;;;5.80;3.50;;;10.80;99.90;;;;;;5116904;28;20027;-77
2022/02/03 20:19:47;;;;;;;5.90;3.50;;;10.80;99.90;;;;;;5116803;28;20028;-78
2022/02/03 20:22:13;;;;;;;5.13;3.33;;;10.70;99.90;;;;;;5116816;28;20012;-78
2022/02/03 20:24:39;;;;;;;6.82;3.63;;;10.80;99.90;;;;;;5116799;28;20060;-77
2022/02/03 20:27:05;;;;;;;5.32;3.53;;;10.80;99.90;;;;;;5117018;28;20031;-76
2022/02/03 20:29:30;;;;;;;6.07;3.88;;;10.80;99.90;;;;;;5116937;28;20023;-76
2022/02/03 20:31:56;;;;;;;6.38;3.50;;;10.70;99.90;;;;;;5116854;28;20024;-76
2022/02/03 20:34:22;;;;;;;4.97;3.30;;;10.70;99.90;;;;;;5116559;28;20024;-77
2022/02/03 20:36:48;;;;;;;5.50;3.80;;;10.70;99.90;;;;;;5116539;28;20045;-78
2022/02/03 20:39:14;;;;;;;5.45;3.83;;;10.70;99.90;;;;;;5116362;28;20489;-75
2022/02/03 20:41:40;;;;;;;5.03;3.78;;;10.70;99.90;;;;;;5115176;28;20066;-78
2022/02/03 20:44:06;;;;;;;5.97;4.00;;;10.70;99.90;;;;;;5116400;28;20095;-76
2022/02/03 20:46:32;;;;;;;7.13;4.90;;;10.70;99.90;;;;;;5116940;28;20055;-75
2022/02/03 20:48:58;;;;;;;7.13;4.68;;;10.80;99.90;;;;;;5116873;28;20019;-76
2022/02/03 20:51:24;;;;;;;9.23;4.90;;;10.80;99.90;;;;;;5116250;28;20016;-77
2022/02/03 20:53:50;;;;;;;31.98;18.40;;;10.80;99.90;;;;;;5116156;28;20020;-77
2022/02/03 20:56:18;;;;;;;14.43;9.05;;;10.80;99.90;;;;;;5116197;28;20024;-79
2022/02/03 20:58:45;;;;;;;11.40;7.10;;;10.80;99.90;;;;;;5116342;28;20024;-78
2022/02/03 21:01:21;;;;;;;19.42;12.38;;;10.80;99.90;;;;;;5116124;28;20031;-76
2022/02/03 21:03:48;;;;;;;8.82;5.35;;;10.80;99.90;;;;;;5115923;28;20501;-77
2022/02/03 21:06:15;;;;;;;16.38;11.77;;;10.70;99.90;;;;;;5115032;28;20478;-77
2022/02/03 21:08:45;;;;;;;7.93;5.15;;;10.70;99.90;;;;;;5115987;28;20065;-77
2022/02/03 21:11:12;;;;;;;8.68;5.97;;;10.70;99.90;;;;;;5116276;28;20019;-78
2022/02/03 21:13:38;;;;;;;7.60;5.18;;;10.80;99.90;;;;;;5115895;27;20047;-77
2022/02/03 21:16:06;;;;;;;15.30;6.88;;;10.80;99.90;;;;;;5115808;28;20019;-75
2022/02/03 21:18:36;;;;;;;11.63;7.93;;;10.70;99.90;;;;;;5116352;28;20027;-77
2022/02/03 21:21:02;;;;;;;10.82;7.93;;;10.60;99.90;;;;;;5116046;28;20098;-75
2022/02/03 21:23:28;;;;;;;9.48;6.03;;;10.60;99.90;;;;;;5115688;28;20488;-76
2022/02/03 21:25:56;;;;;;;8.27;5.50;;;10.60;99.90;;;;;;5115621;28;20072;-77
2022/02/03 21:28:27;;;;;;;7.25;4.60;;;10.60;99.90;;;;;;5115615;28;20027;-77
2022/02/03 21:30:53;;;;;;;7.47;4.30;;;10.60;99.90;;;;;;5116114;28;20031;-76
2022/02/03 21:33:24;;;;;;;6.85;4.65;;;10.60;99.90;;;;;;5115484;28;20442;-78
2022/02/03 21:35:51;;;;;;;7.82;5.15;;;10.60;99.90;;;;;;5115489;28;20075;-77
2022/02/03 21:38:17;;;;;;;8.18;4.88;;;10.60;99.90;;;;;;5115438;28;20102;-78
2022/02/03 21:40:44;;;;;;;6.75;4.68;;;10.50;99.90;;;;;;5115277;28;20550;-78
2022/02/03 21:43:10;;;;;;;9.63;4.78;;;10.50;99.90;;;;;;5115239;28;20077;-76
2022/02/03 21:45:36;;;;;;;8.05;4.78;;;10.50;99.90;;;;;;5115193;28;20019;-77
2022/02/03 21:48:03;;;;;;;7.38;4.50;;;10.50;99.90;;;;;;5115164;27;20089;-76
2022/02/03 21:50:34;;;;;;;7.75;4.38;;;10.50;99.90;;;;;;5115057;28;20019;-78
2022/02/03 21:53:02;;;;;;;7.10;4.35;;;10.50;99.90;;;;;;5113530;28;20118;-76
2022/02/03 21:55:30;;;;;;;8.75;5.15;;;10.40;99.90;;;;;;5114980;28;20473;-75
2022/02/03 21:57:56;;;;;;;7.75;4.65;;;10.40;99.90;;;;;;5115005;28;20537;-75
2022/02/03 22:00:22;;;;;;;5.32;3.60;;;10.40;99.90;;;;;;5114827;28;20015;-78
2022/02/03 22:02:49;;;;;;;7.38;4.20;;;10.50;99.90;;;;;;5115037;28;20036;-77
2022/02/03 22:05:15;;;;;;;10.65;5.10;;;10.40;99.90;;;;;;5114898;28;20020;-77
2022/02/03 22:07:43;;;;;;;8.02;4.70;;;10.40;99.90;;;;;;5114794;28;20477;-77
2022/02/03 22:10:15;;;;;;;5.68;4.03;;;10.40;99.90;;;;;;5114711;28;20020;-77
2022/02/03 22:12:41;;;;;;;6.25;4.00;;;10.40;99.90;;;;;;5114710;28;20061;-79
2022/02/03 22:15:07;;;;;;;5.70;3.72;;;10.40;99.90;;;;;;5114708;28;20115;-77
2022/02/03 22:17:33;;;;;;;5.50;3.97;;;10.40;99.90;;;;;;5114555;28;20031;-76
2022/02/03 22:20:03;;;;;;;5.13;3.28;;;10.40;99.90;;;;;;5114474;28;20389;-77
2022/02/03 22:25:23;;;;;;;3.80;3.05;;;10.40;99.90;;;;;;5114676;28;20053;-77
2022/02/03 22:28:07;;;;;;;4.70;3.00;;;10.40;99.90;;;;;;5114694;28;20019;-79
2022/02/03 22:44:22;;;;;;;6.85;3.30;;;10.20;99.90;;;;;;5114696;28;20034;-77
2022/02/03 22:49:32;;;;;;;4.43;2.85;;;10.20;99.90;;;;;;5114074;28;20070;-77
2022/02/03 22:51:57;;;;;;;7.85;4.93;;;10.30;99.90;;;;;;5114037;28;20051;-77
2022/02/03 22:54:23;;;;;;;6.13;3.70;;;10.20;99.90;;;;;;5113875;28;20062;-77
2022/02/03 22:56:49;;;;;;;5.72;3.20;;;10.20;99.90;;;;;;5113865;28;20077;-78
2022/02/03 23:01:46;;;;;;;9.70;5.35;;;10.20;99.90;;;;;;5113867;28;20050;-76
2022/02/03 23:04:12;;;;;;;5.43;3.22;;;10.20;99.90;;;;;;5113397;28;20075;-78
2022/02/03 23:06:37;;;;;;;4.40;2.70;;;10.20;99.90;;;;;;5113798;28;20061;-78
2022/02/03 23:09:33;;;;;;;3.45;2.20;;;10.30;99.90;;;;;;5114001;28;20030;-75
2022/02/03 23:17:53;;;;;;;5.43;2.83;;;10.20;99.90;;;;;;5093875;28;20122;-75
2022/02/03 23:22:41;;;;;;;9.48;4.50;;;10.10;99.90;;;;;;5114511;28;20019;-76
2022/02/03 23:25:13;;;;;;;4.22;2.42;;;10.20;99.90;;;;;;5113904;28;20054;-77
2022/02/03 23:30:21;;;;;;;2.92;1.70;;;10.10;99.90;;;;;;5116555;28;20031;-77
2022/02/03 23:32:49;;;;;;;3.70;2.25;;;10.10;99.90;;;;;;5118398;28;20023;-76
2022/02/03 23:35:27;;;;;;;5.15;3.03;;;10.00;99.90;;;;;;5116486;28;20084;-77
2022/02/03 23:51:25;;;;;;;5.82;2.50;;;10.10;99.90;;;;;;5117778;28;20059;-78
